createdAt,value
2023-01-31T00:01:08.485Z,4.40
2023-01-31T00:06:08.405Z,4.37
2023-01-31T00:11:08.353Z,4.25
2023-01-31T00:16:08.300Z,4.34
2023-01-31T00:21:08.348Z,4.32
2023-01-31T00:26:08.152Z,4.39
2023-01-31T00:31:08.223Z,4.46
2023-01-31T00:36:08.003Z,4.59
2023-01-31T00:41:07.977Z,4.67
2023-01-31T00:46:07.901Z,4.75
2023-01-31T00:51:07.823Z,4.83
2023-01-31T00:56:07.763Z,4.79
2023-01-31T01:01:07.715Z,4.72
2023-01-31T01:06:07.649Z,4.61
2023-01-31T01:11:07.603Z,4.50
2023-01-31T01:16:07.499Z,4.39
2023-01-31T01:21:07.475Z,4.19
2023-01-31T01:26:07.360Z,4.08
2023-01-31T01:31:07.437Z,4.03
2023-01-31T01:36:07.232Z,4.03
2023-01-31T01:41:07.146Z,4.00
2023-01-31T01:46:07.169Z,3.82
2023-01-31T01:51:07.087Z,3.68
2023-01-31T01:56:06.949Z,3.67
2023-01-31T02:01:06.937Z,3.72
2023-01-31T02:06:06.838Z,3.86
2023-01-31T02:11:06.802Z,4.01
2023-01-31T02:16:06.794Z,4.07
2023-01-31T02:21:06.640Z,4.16
2023-01-31T02:26:06.603Z,4.22
2023-01-31T02:31:06.627Z,4.26
2023-01-31T02:36:06.566Z,4.36
2023-01-31T02:41:06.404Z,4.43
2023-01-31T02:46:06.436Z,4.43
2023-01-31T02:51:06.298Z,4.44
2023-01-31T02:56:06.427Z,4.47
2023-01-31T03:01:06.146Z,4.47
2023-01-31T03:06:06.057Z,4.50
2023-01-31T03:11:05.965Z,4.54
2023-01-31T03:16:05.954Z,4.55
2023-01-31T03:21:06.806Z,4.59
2023-01-31T03:26:05.836Z,4.59
2023-01-31T03:31:05.872Z,4.57
2023-01-31T03:36:05.658Z,4.54
2023-01-31T03:41:05.613Z,4.42
2023-01-31T03:46:05.576Z,4.44
2023-01-31T03:51:05.467Z,4.42
2023-01-31T03:56:05.386Z,4.33
2023-01-31T04:01:05.357Z,4.24
2023-01-31T04:06:05.274Z,4.06
2023-01-31T04:11:05.190Z,3.92
2023-01-31T04:16:05.347Z,3.85
2023-01-31T04:21:05.069Z,3.79
2023-01-31T04:26:05.013Z,3.80
2023-01-31T04:31:05.025Z,3.76
2023-01-31T04:36:04.864Z,3.70
2023-01-31T04:41:04.833Z,3.64
2023-01-31T04:46:04.823Z,3.65
2023-01-31T04:51:04.703Z,3.76
2023-01-31T04:56:04.639Z,3.88
2023-01-31T05:01:04.637Z,4.04
2023-01-31T05:06:04.555Z,4.16
2023-01-31T05:11:04.700Z,4.29
2023-01-31T05:16:04.636Z,4.39
2023-01-31T05:21:04.277Z,4.51
2023-01-31T05:26:04.810Z,4.46
2023-01-31T05:31:04.602Z,4.40
2023-01-31T05:36:04.080Z,4.39
2023-01-31T05:41:04.041Z,4.40
2023-01-31T05:46:04.191Z,4.39
2023-01-31T05:51:03.927Z,4.34
2023-01-31T05:56:03.821Z,4.28
2023-01-31T06:01:03.772Z,4.22
2023-01-31T06:06:03.701Z,4.22
2023-01-31T06:11:03.644Z,4.26
2023-01-31T06:16:03.599Z,4.32
2023-01-31T06:21:03.514Z,4.32
2023-01-31T06:26:03.448Z,4.40
2023-01-31T06:31:03.557Z,4.39
2023-01-31T06:36:03.319Z,4.44
2023-01-31T06:41:03.276Z,4.55
2023-01-31T06:46:03.259Z,4.55
2023-01-31T06:51:03.144Z,4.36
2023-01-31T06:56:03.090Z,4.28
2023-01-31T07:01:02.998Z,4.21
2023-01-31T07:06:02.915Z,4.22
2023-01-31T07:11:02.864Z,4.25
2023-01-31T07:16:02.887Z,4.29
2023-01-31T07:21:02.756Z,4.39
2023-01-31T07:26:02.708Z,4.47
2023-01-31T07:31:02.700Z,4.58
2023-01-31T07:36:02.568Z,4.67
2023-01-31T07:41:02.477Z,4.64
2023-01-31T07:46:06.432Z,4.75
2023-01-31T07:51:02.425Z,4.79
2023-01-31T07:56:02.304Z,4.84
2023-01-31T08:01:02.270Z,4.89
2023-01-31T08:06:02.198Z,5.05
2023-01-31T08:11:02.135Z,5.12
2023-01-31T08:16:02.018Z,5.35
2023-01-31T08:21:02.001Z,5.52
2023-01-31T08:26:01.887Z,6.03
2023-01-31T08:31:09.045Z,6.36
2023-01-31T08:36:02.782Z,6.07
2023-01-31T08:41:01.704Z,5.89
2023-01-31T08:46:01.632Z,5.77
2023-01-31T08:51:01.570Z,5.68
2023-01-31T08:56:01.482Z,5.82
2023-01-31T09:01:01.568Z,5.88
2023-01-31T09:06:01.366Z,5.93
2023-01-31T09:11:01.568Z,6.16
2023-01-31T09:16:01.225Z,6.28
2023-01-31T09:21:01.196Z,6.30
2023-01-31T09:26:01.377Z,6.35
2023-01-31T09:31:01.106Z,6.33
2023-01-31T09:36:00.948Z,6.73
2023-01-31T09:41:00.873Z,6.77
2023-01-31T09:46:00.852Z,6.77
2023-01-31T09:51:00.757Z,6.83
2023-01-31T09:56:00.742Z,6.77
2023-01-31T10:01:00.723Z,6.94
2023-01-31T10:06:00.682Z,7.34
2023-01-31T10:11:00.485Z,7.67
2023-01-31T10:16:00.393Z,7.58
2023-01-31T10:21:00.395Z,7.32
2023-01-31T10:26:00.291Z,7.02
2023-01-31T10:31:00.292Z,7.08
2023-01-31T10:36:00.270Z,7.08
2023-01-31T10:41:00.137Z,7.07
2023-01-31T10:46:00.039Z,7.09
2023-01-31T10:50:59.942Z,6.99
2023-01-31T10:56:00.372Z,6.87
2023-01-31T11:00:59.852Z,6.87
2023-01-31T11:05:59.772Z,6.84
2023-01-31T11:10:59.671Z,6.99
2023-01-31T11:15:59.680Z,6.97
2023-01-31T11:20:59.565Z,7.04
2023-01-31T11:25:59.502Z,6.97
2023-01-31T11:30:59.440Z,6.98
2023-01-31T11:35:59.424Z,7.04
2023-01-31T11:40:59.313Z,7.09
2023-01-31T11:45:59.261Z,7.22
2023-01-31T11:50:59.144Z,7.23
2023-01-31T11:55:59.118Z,7.41
2023-01-31T12:00:59.002Z,7.53
2023-01-31T12:05:58.976Z,7.56
2023-01-31T12:10:58.915Z,7.62
2023-01-31T12:15:58.990Z,7.89
2023-01-31T12:20:58.774Z,7.60
2023-01-31T12:25:58.717Z,7.66
2023-01-31T12:30:58.673Z,7.75
2023-01-31T12:35:58.547Z,7.63
2023-01-31T12:40:58.498Z,7.47
2023-01-31T12:45:58.552Z,7.27
2023-01-31T12:50:58.365Z,7.16
2023-01-31T12:55:58.418Z,6.83
2023-01-31T13:00:58.249Z,6.86
2023-01-31T13:05:58.163Z,6.99
2023-01-31T13:10:58.104Z,7.05
2023-01-31T13:15:58.030Z,6.94
2023-01-31T13:20:57.950Z,6.90
2023-01-31T13:25:57.894Z,6.77
2023-01-31T13:30:57.955Z,6.46
2023-01-31T13:35:57.760Z,6.35
2023-01-31T13:40:57.708Z,6.11
2023-01-31T13:45:57.928Z,5.91
2023-01-31T13:50:57.576Z,5.78
2023-01-31T13:55:57.577Z,5.81
2023-01-31T14:00:57.431Z,5.73
2023-01-31T14:05:57.359Z,5.67
2023-01-31T14:10:57.339Z,5.68
2023-01-31T14:15:57.243Z,5.67
2023-01-31T14:20:57.201Z,5.57
2023-01-31T14:25:57.096Z,5.63
2023-01-31T14:30:57.081Z,5.56
2023-01-31T14:35:56.971Z,5.56
2023-01-31T14:40:56.927Z,5.57
2023-01-31T14:45:56.865Z,5.57
2023-01-31T14:50:56.767Z,5.53
2023-01-31T14:55:56.676Z,5.49
2023-01-31T15:00:56.737Z,5.46
2023-01-31T15:05:56.689Z,5.49
2023-01-31T15:10:56.563Z,5.48
2023-01-31T15:15:57.428Z,5.37
2023-01-31T15:20:56.361Z,5.34
2023-01-31T15:25:56.262Z,5.28
2023-01-31T15:30:56.281Z,5.22
2023-01-31T15:35:56.223Z,5.22
2023-01-31T15:40:56.081Z,5.17
2023-01-31T15:45:56.060Z,5.14
2023-01-31T15:50:56.249Z,5.12
2023-01-31T15:55:55.856Z,5.12
2023-01-31T16:00:55.878Z,5.05
2023-01-31T16:05:55.757Z,5.01
2023-01-31T16:10:55.748Z,5.02
2023-01-31T16:15:55.623Z,4.95
2023-01-31T16:20:55.545Z,4.94
2023-01-31T16:25:55.506Z,4.91
2023-01-31T16:30:55.494Z,4.88
2023-01-31T16:36:10.545Z,4.92
2023-01-31T16:40:56.329Z,4.89
2023-01-31T16:45:55.316Z,4.98
2023-01-31T16:50:55.211Z,4.99
2023-01-31T16:55:55.117Z,5.05
2023-01-31T17:00:55.034Z,5.12
2023-01-31T17:05:54.941Z,5.10
2023-01-31T17:10:54.887Z,5.07
2023-01-31T17:15:54.890Z,5.10
2023-01-31T17:20:54.800Z,5.02
2023-01-31T17:25:54.688Z,5.05
2023-01-31T17:30:54.745Z,5.10
2023-01-31T17:35:54.573Z,5.09
2023-01-31T17:40:54.596Z,5.16
2023-01-31T17:45:54.472Z,5.23
2023-01-31T17:50:54.421Z,5.30
2023-01-31T17:55:54.316Z,5.31
2023-01-31T18:00:54.286Z,5.32
2023-01-31T18:05:54.176Z,5.40
2023-01-31T18:10:54.119Z,5.45
2023-01-31T18:15:54.119Z,5.49
2023-01-31T18:20:53.993Z,5.59
2023-01-31T18:25:53.943Z,5.67
2023-01-31T18:30:53.931Z,5.74
2023-01-31T18:35:53.821Z,5.88
2023-01-31T18:40:53.722Z,5.91
2023-01-31T18:45:53.636Z,5.98
2023-01-31T18:50:53.638Z,6.01
2023-01-31T18:55:53.508Z,6.06
2023-01-31T19:00:53.521Z,6.04
2023-01-31T19:05:57.358Z,6.10
2023-01-31T19:10:53.356Z,6.11
2023-01-31T19:15:53.308Z,6.09
2023-01-31T19:20:53.180Z,6.06
2023-01-31T19:25:53.131Z,6.09
2023-01-31T19:30:53.117Z,6.10
2023-01-31T19:35:52.985Z,6.09
2023-01-31T19:40:53.034Z,6.11
2023-01-31T19:45:52.901Z,6.16
2023-01-31T19:50:52.864Z,6.22
2023-01-31T19:55:52.732Z,6.32
2023-01-31T20:00:52.717Z,6.32
2023-01-31T20:05:52.609Z,6.36
2023-01-31T20:10:52.523Z,6.35
2023-01-31T20:15:52.473Z,6.32
2023-01-31T20:20:52.422Z,6.28
2023-01-31T20:25:52.378Z,6.18
2023-01-31T20:30:53.511Z,6.00
2023-01-31T20:35:53.722Z,5.86
2023-01-31T20:40:52.180Z,5.73
2023-01-31T20:45:52.156Z,5.78
2023-01-31T20:50:52.022Z,5.83
2023-01-31T20:55:51.979Z,5.88
2023-01-31T21:00:51.948Z,5.98
2023-01-31T21:05:51.810Z,6.07
2023-01-31T21:10:51.775Z,6.14
2023-01-31T21:15:51.765Z,6.11
2023-01-31T21:20:51.607Z,6.07
2023-01-31T21:25:51.588Z,5.93
2023-01-31T21:30:51.600Z,5.71
2023-01-31T21:35:51.412Z,5.60
2023-01-31T21:40:51.318Z,5.56
2023-01-31T21:45:51.372Z,5.49
2023-01-31T21:50:51.212Z,5.52
2023-01-31T21:55:51.181Z,5.52
2023-01-31T22:00:51.072Z,5.64
2023-01-31T22:05:51.848Z,5.77
2023-01-31T22:10:50.956Z,5.98
2023-01-31T22:15:50.883Z,6.07
2023-01-31T22:20:50.808Z,6.14
2023-01-31T22:25:50.782Z,6.21
2023-01-31T22:30:50.849Z,6.26
2023-01-31T22:35:50.628Z,6.29
2023-01-31T22:40:50.582Z,6.41
2023-01-31T22:45:50.629Z,6.44
2023-01-31T22:50:50.401Z,6.40
2023-01-31T22:55:50.363Z,6.44
2023-01-31T23:00:50.252Z,6.40
2023-01-31T23:05:50.206Z,6.40
2023-01-31T23:10:50.183Z,6.36
2023-01-31T23:16:11.823Z,6.36
2023-01-31T23:20:50.072Z,6.35
2023-01-31T23:25:49.972Z,6.36
2023-01-31T23:30:50.007Z,6.29
2023-01-31T23:35:49.925Z,6.21
2023-01-31T23:40:49.787Z,6.14
2023-01-31T23:45:49.727Z,6.09
2023-01-31T23:50:49.640Z,5.98
2023-01-31T23:55:49.543Z,5.88
